Time;durP1;ratioP1;P1;durP2;ratioP2;P2;SDS_P1;SDS_P2;PMS_P1;PMS_P2;Temp;Humidity;BMP_temperature;BMP_pressure;BME280_temperature;BME280_humidity;BME280_pressure;Samples;Min_cycle;Max_cycle;Signal;HPM_P1;HPM_P2
2022/12/29 00:00:11;;;;;;;2.00;0.97;;;;;;;;;;5016642;28;20520;-93
2022/12/29 00:02:37;;;;;;;2.47;0.97;;;;;;;;;;4998441;28;20549;-93
2022/12/29 00:05:03;;;;;;;2.57;1.00;;;;;;;;;;5001245;28;20811;-94
2022/12/29 00:07:29;;;;;;;1.30;0.67;;;;;;;;;;5016918;28;20447;-91
2022/12/29 00:09:58;;;;;;;1.47;0.20;;;;;;;;;;5016536;28;20425;-92
2022/12/29 00:12:24;;;;;;;1.73;0.50;;;;;;;;;;5016838;28;20453;-92
2022/12/29 00:17:58;;;;;;;2.70;0.77;;;;;;;;;;5017615;28;20406;-91
2022/12/29 00:36:54;;;;;;;1.83;0.93;;;;;;;;;;5020384;28;20409;-95
2022/12/29 00:44:53;;;;;;;1.70;0.60;;;;;;;;;;5017363;28;20445;-93
2022/12/29 00:47:19;;;;;;;1.70;0.67;;;;;;;;;;5015995;28;20919;-91
2022/12/29 00:49:45;;;;;;;2.17;0.80;;;;;;;;;;5016746;28;20428;-92
2022/12/29 00:52:12;;;;;;;1.13;0.63;;;;;;;;;;5017509;28;20422;-93
2022/12/29 00:54:39;;;;;;;1.60;0.90;;;;;;;;;;5015254;28;21021;-93
2022/12/29 00:57:06;;;;;;;2.37;0.90;;;;;;;;;;5015783;28;20488;-92
2022/12/29 00:59:32;;;;;;;2.30;1.53;;;;;;;;;;5015226;28;20945;-92
2022/12/29 01:01:58;;;;;;;2.30;1.30;;;;;;;;;;5015781;28;20429;-93
2022/12/29 01:04:25;;;;;;;1.93;1.13;;;;;;;;;;5015344;28;20959;-94
2022/12/29 01:06:51;;;;;;;2.00;1.20;;;;;;;;;;5015291;28;20427;-93
2022/12/29 01:12:03;;;;;;;2.93;1.27;;;;;;;;;;5016890;28;20801;-92
2022/12/29 01:14:29;;;;;;;3.03;0.30;;;;;;;;;;5015419;28;20411;-93
2022/12/29 01:16:56;;;;;;;1.57;0.63;;;;;;;;;;5015197;28;20461;-93
2022/12/29 01:19:25;;;;;;;1.93;1.27;;;;;;;;;;5015157;28;20417;-91
2022/12/29 01:21:54;;;;;;;4.13;0.90;;;;;;;;;;5015127;28;20417;-93
2022/12/29 01:24:26;;;;;;;1.87;1.13;;;;;;;;;;5015060;28;20430;-91
2022/12/29 01:26:55;;;;;;;2.00;0.63;;;;;;;;;;5014999;28;20431;-92
2022/12/29 01:29:21;;;;;;;1.30;0.63;;;;;;;;;;5014621;28;20416;-93
2022/12/29 01:31:47;;;;;;;1.60;0.90;;;;;;;;;;5015030;28;20425;-95
2022/12/29 01:34:15;;;;;;;2.13;1.17;;;;;;;;;;5017813;28;20418;-95
2022/12/29 01:36:43;;;;;;;1.87;1.00;;;;;;;;;;5028803;28;20472;-95
2022/12/29 01:39:37;;;;;;;1.43;0.70;;;;;;;;;;5295505;23;20489;-93
2022/12/29 01:42:03;;;;;;;2.43;1.03;;;;;;;;;;4997060;28;20415;-92
2022/12/29 01:44:51;;;;;;;2.07;1.20;;;;;;;;;;5023466;28;20454;-92
2022/12/29 01:47:21;;;;;;;1.63;0.70;;;;;;;;;;5025804;28;20437;-94
2022/12/29 01:49:48;;;;;;;3.77;0.67;;;;;;;;;;5025425;28;20434;-94
2022/12/29 01:52:18;;;;;;;2.23;0.40;;;;;;;;;;5022722;28;20418;-95
2022/12/29 01:54:47;;;;;;;2.53;1.50;;;;;;;;;;5016843;28;20422;-93
2022/12/29 01:57:17;;;;;;;1.63;0.90;;;;;;;;;;5015253;28;20546;-92
2022/12/29 01:59:46;;;;;;;2.60;0.93;;;;;;;;;;4997987;28;20491;-94
2022/12/29 02:02:12;;;;;;;2.20;1.23;;;;;;;;;;5000170;28;20462;-93
2022/12/29 02:04:43;;;;;;;3.13;1.13;;;;;;;;;;4998802;28;20469;-93
2022/12/29 02:07:12;;;;;;;2.27;1.57;;;;;;;;;;5026493;28;20643;-95
2022/12/29 02:09:38;;;;;;;1.60;1.10;;;;;;;;;;4999554;28;20428;-92
2022/12/29 02:12:04;;;;;;;1.17;1.00;;;;;;;;;;5015513;28;20449;-93
2022/12/29 02:14:30;;;;;;;2.37;0.90;;;;;;;;;;5017385;28;20420;-92
2022/12/29 02:17:03;;;;;;;3.80;1.13;;;;;;;;;;5018741;28;20447;-93
2022/12/29 02:19:38;;;;;;;3.37;1.13;;;;;;;;;;5021665;28;20456;-94
2022/12/29 02:22:14;;;;;;;1.70;0.90;;;;;;;;;;5026779;28;20427;-93
2022/12/29 02:27:23;;;;;;;2.20;0.80;;;;;;;;;;5131997;23;21013;-94
2022/12/29 02:29:59;;;;;;;3.90;1.20;;;;;;;;;;5032298;28;20440;-94
2022/12/29 02:32:51;;;;;;;3.50;1.57;;;;;;;;;;5050932;28;20421;-91
2022/12/29 02:40:14;;;;;;;1.47;0.63;;;;;;;;;;5048162;28;20455;-91
2022/12/29 02:43:00;;;;;;;4.73;1.87;;;;;;;;;;5042625;28;20569;-95
2022/12/29 02:45:48;;;;;;;3.57;1.10;;;;;;;;;;5033617;28;20521;-94
2022/12/29 02:48:33;;;;;;;1.63;0.73;;;;;;;;;;5074320;23;20436;-93
2022/12/29 02:56:38;;;;;;;1.43;0.50;;;;;;;;;;4991701;28;20744;-92
2022/12/29 02:59:04;;;;;;;2.70;0.60;;;;;;;;;;4960069;28;20428;-93
2022/12/29 03:02:16;;;;;;;1.70;0.80;;;;;;;;;;4958425;28;20483;-93
2022/12/29 03:04:37;;;;;;;2.10;0.90;;;;;;;;;;4977710;28;20428;-91
2022/12/29 03:07:09;;;;;;;3.63;1.03;;;;;;;;;;4958842;28;20823;-87
2022/12/29 03:09:35;;;;;;;1.13;0.40;;;;;;;;;;4950432;28;20451;-90
2022/12/29 03:18:00;;;;;;;1.90;0.63;;;;;;;;;;4978865;28;20401;-89
2022/12/29 03:20:38;;;;;;;1.80;1.10;;;;;;;;;;4961847;28;20423;-88
2022/12/29 03:23:05;;;;;;;1.43;0.53;;;;;;;;;;4978723;28;20868;-91
2022/12/29 03:25:34;;;;;;;1.73;0.50;;;;;;;;;;4978871;28;20413;-91
2022/12/29 03:28:05;;;;;;;1.83;0.70;;;;;;;;;;4961600;28;20508;-89
2022/12/29 03:30:32;;;;;;;2.23;0.53;;;;;;;;;;4961267;28;20434;-86
2022/12/29 03:33:00;;;;;;;3.80;0.90;;;;;;;;;;4965741;28;20412;-89
2022/12/29 03:35:27;;;;;;;1.43;0.37;;;;;;;;;;4980497;28;20784;-89
2022/12/29 03:37:59;;;;;;;2.50;0.90;;;;;;;;;;4961319;28;20474;-87
2022/12/29 03:40:26;;;;;;;2.67;0.80;;;;;;;;;;4961544;28;20427;-90
2022/12/29 03:42:53;;;;;;;2.13;0.60;;;;;;;;;;4961107;28;20470;-87
2022/12/29 03:45:19;;;;;;;1.30;0.40;;;;;;;;;;4977893;28;20422;-87
2022/12/29 03:47:45;;;;;;;1.23;0.80;;;;;;;;;;4978309;28;20416;-87
2022/12/29 03:50:14;;;;;;;2.73;1.07;;;;;;;;;;4960768;28;20925;-87
2022/12/29 03:52:40;;;;;;;1.60;0.60;;;;;;;;;;4978073;28;20495;-89
2022/12/29 03:55:09;;;;;;;2.27;0.53;;;;;;;;;;4978167;28;20424;-86
2022/12/29 03:57:35;;;;;;;2.43;0.60;;;;;;;;;;4978167;28;20420;-87
2022/12/29 04:00:01;;;;;;;1.73;0.53;;;;;;;;;;4960796;28;20506;-88
2022/12/29 04:02:27;;;;;;;1.90;0.50;;;;;;;;;;4978005;28;20467;-89
2022/12/29 04:04:53;;;;;;;0.80;0.40;;;;;;;;;;4960712;28;20421;-89
2022/12/29 04:07:18;;;;;;;0.77;0.30;;;;;;;;;;4960777;28;20408;-89
2022/12/29 04:09:44;;;;;;;0.80;0.30;;;;;;;;;;4961175;28;20446;-89
2022/12/29 04:12:10;;;;;;;1.17;0.30;;;;;;;;;;4960631;28;20428;-90
2022/12/29 04:14:36;;;;;;;1.37;0.53;;;;;;;;;;4960476;28;20420;-90
2022/12/29 04:17:02;;;;;;;1.43;0.70;;;;;;;;;;4960599;28;20418;-91
2022/12/29 04:19:28;;;;;;;3.03;1.33;;;;;;;;;;4960548;28;20423;-90
2022/12/29 04:21:54;;;;;;;1.47;0.47;;;;;;;;;;4960478;28;20419;-87
2022/12/29 04:24:20;;;;;;;1.93;0.40;;;;;;;;;;4977640;28;20476;-87
2022/12/29 04:26:46;;;;;;;1.83;0.40;;;;;;;;;;4959780;28;20580;-87
2022/12/29 04:29:12;;;;;;;1.47;0.83;;;;;;;;;;4960335;28;20432;-89
2022/12/29 04:31:37;;;;;;;0.93;0.43;;;;;;;;;;4960605;28;20415;-87
2022/12/29 04:34:03;;;;;;;1.63;0.40;;;;;;;;;;4960420;28;20425;-91
2022/12/29 04:36:29;;;;;;;3.70;0.30;;;;;;;;;;4960529;28;20427;-91
2022/12/29 04:38:55;;;;;;;1.10;0.50;;;;;;;;;;4977881;28;20417;-92
2022/12/29 04:41:21;;;;;;;0.93;0.40;;;;;;;;;;4960565;28;20456;-91
2022/12/29 04:43:59;;;;;;;1.00;0.40;;;;;;;;;;4960424;28;20675;-87
2022/12/29 04:46:25;;;;;;;1.27;0.20;;;;;;;;;;4960473;28;20424;-90
2022/12/29 04:48:51;;;;;;;9.03;1.13;;;;;;;;;;4960342;28;20478;-91
2022/12/29 04:51:17;;;;;;;1.77;0.40;;;;;;;;;;4960123;28;20539;-90
2022/12/29 04:53:43;;;;;;;1.33;0.30;;;;;;;;;;4977095;28;20527;-87
2022/12/29 04:56:09;;;;;;;0.90;0.30;;;;;;;;;;4977454;28;20418;-88
2022/12/29 04:58:38;;;;;;;1.20;0.20;;;;;;;;;;4959685;28;20469;-90
2022/12/29 05:01:04;;;;;;;2.20;0.43;;;;;;;;;;4960011;28;20712;-87
2022/12/29 05:03:33;;;;;;;0.80;0.23;;;;;;;;;;4960779;28;20539;-87
2022/12/29 05:06:02;;;;;;;0.87;0.40;;;;;;;;;;4960754;28;20430;-86
2022/12/29 05:08:28;;;;;;;1.17;0.40;;;;;;;;;;4959718;28;20429;-90
2022/12/29 05:10:54;;;;;;;1.03;0.40;;;;;;;;;;4959725;28;20421;-90
2022/12/29 05:13:20;;;;;;;1.03;0.20;;;;;;;;;;4959428;28;20487;-88
2022/12/29 05:15:48;;;;;;;0.50;0.20;;;;;;;;;;4959219;28;20424;-88
2022/12/29 05:18:14;;;;;;;0.57;0.20;;;;;;;;;;4959742;28;20445;-88
2022/12/29 05:20:40;;;;;;;0.50;0.20;;;;;;;;;;4959285;28;20420;-86
2022/12/29 05:23:06;;;;;;;1.10;0.30;;;;;;;;;;4959006;28;20485;-88
2022/12/29 05:25:32;;;;;;;1.27;0.30;;;;;;;;;;4959004;28;20423;-89
2022/12/29 05:28:10;;;;;;;0.53;0.20;;;;;;;;;;4956823;28;20795;-91
2022/12/29 05:30:36;;;;;;;0.80;0.20;;;;;;;;;;4958927;28;20420;-89
2022/12/29 05:33:01;;;;;;;1.37;0.40;;;;;;;;;;4959020;28;20794;-88
2022/12/29 05:35:27;;;;;;;1.53;0.30;;;;;;;;;;4959355;28;20426;-88
2022/12/29 05:37:53;;;;;;;1.10;0.30;;;;;;;;;;4958521;28;20939;-91
2022/12/29 05:40:22;;;;;;;2.10;0.40;;;;;;;;;;4958922;28;20921;-89
2022/12/29 05:42:48;;;;;;;0.83;0.23;;;;;;;;;;4959046;28;20467;-90
2022/12/29 05:45:14;;;;;;;0.93;0.40;;;;;;;;;;4958593;28;20530;-88
2022/12/29 05:47:40;;;;;;;1.97;0.20;;;;;;;;;;4958960;28;20466;-89
2022/12/29 05:50:06;;;;;;;1.10;0.40;;;;;;;;;;4959018;28;20434;-90
2022/12/29 05:52:32;;;;;;;1.13;0.20;;;;;;;;;;4958951;28;20486;-93
2022/12/29 05:54:57;;;;;;;2.40;0.37;;;;;;;;;;4958941;28;20432;-91
2022/12/29 05:57:23;;;;;;;0.97;0.20;;;;;;;;;;4931399;28;20446;-86
2022/12/29 05:59:52;;;;;;;2.87;0.30;;;;;;;;;;4975079;28;20430;-89
2022/12/29 06:02:18;;;;;;;1.17;0.40;;;;;;;;;;4975431;28;20236;-91
2022/12/29 06:04:44;;;;;;;3.70;0.37;;;;;;;;;;4975437;28;20528;-92
2022/12/29 06:07:10;;;;;;;0.73;0.37;;;;;;;;;;4975510;28;20187;-90
2022/12/29 06:09:36;;;;;;;0.80;0.40;;;;;;;;;;4975095;28;20897;-91
2022/12/29 06:12:01;;;;;;;0.77;0.40;;;;;;;;;;4974954;28;20507;-91
2022/12/29 06:14:28;;;;;;;1.33;0.30;;;;;;;;;;4974703;28;20182;-89
2022/12/29 06:16:53;;;;;;;0.60;0.20;;;;;;;;;;4975693;28;20470;-90
2022/12/29 06:19:19;;;;;;;0.80;0.30;;;;;;;;;;4976101;28;20854;-89
2022/12/29 06:21:45;;;;;;;3.20;0.43;;;;;;;;;;4974239;28;20183;-89
2022/12/29 06:24:14;;;;;;;0.57;0.20;;;;;;;;;;4974305;28;20224;-90
2022/12/29 06:26:43;;;;;;;0.50;0.20;;;;;;;;;;4974230;28;20507;-91
2022/12/29 06:29:09;;;;;;;1.23;0.50;;;;;;;;;;4973960;28;20408;-89
2022/12/29 06:31:35;;;;;;;0.93;0.50;;;;;;;;;;4974778;28;20470;-90
2022/12/29 06:34:01;;;;;;;0.90;0.30;;;;;;;;;;4978810;28;20413;-90
2022/12/29 06:36:27;;;;;;;2.00;0.37;;;;;;;;;;4975157;28;20510;-88
2022/12/29 06:38:53;;;;;;;0.60;0.20;;;;;;;;;;4975431;28;20425;-89
2022/12/29 06:41:20;;;;;;;0.60;0.20;;;;;;;;;;4974385;28;20424;-88
2022/12/29 06:43:45;;;;;;;0.50;0.20;;;;;;;;;;4973843;28;20479;-90
2022/12/29 06:46:14;;;;;;;0.53;0.20;;;;;;;;;;4974358;28;20427;-89
2022/12/29 06:48:42;;;;;;;0.50;0.20;;;;;;;;;;4974722;28;20762;-88
2022/12/29 06:51:08;;;;;;;0.40;0.20;;;;;;;;;;4974580;28;20414;-90
2022/12/29 06:53:33;;;;;;;1.13;0.20;;;;;;;;;;4985397;28;20824;-89
2022/12/29 06:55:59;;;;;;;0.70;0.20;;;;;;;;;;4987177;28;20402;-91
2022/12/29 06:58:28;;;;;;;0.60;0.20;;;;;;;;;;4986741;28;20420;-92
2022/12/29 07:00:54;;;;;;;0.60;0.20;;;;;;;;;;4943704;28;20448;-92
2022/12/29 07:03:19;;;;;;;0.80;0.20;;;;;;;;;;4988215;28;20548;-92
2022/12/29 07:05:45;;;;;;;4.03;0.37;;;;;;;;;;4988737;28;20424;-91
2022/12/29 07:08:11;;;;;;;1.00;0.30;;;;;;;;;;4988752;28;20436;-89
2022/12/29 07:10:37;;;;;;;1.53;0.30;;;;;;;;;;5005681;28;20407;-91
2022/12/29 07:13:09;;;;;;;1.00;0.30;;;;;;;;;;4988577;28;20530;-92
2022/12/29 07:15:37;;;;;;;1.17;0.30;;;;;;;;;;4990277;28;20420;-93
2022/12/29 07:18:03;;;;;;;0.80;0.40;;;;;;;;;;4990634;28;20559;-90
2022/12/29 07:20:29;;;;;;;0.80;0.30;;;;;;;;;;4990013;28;20424;-89
2022/12/29 07:22:55;;;;;;;0.83;0.47;;;;;;;;;;4983725;28;20507;-91
2022/12/29 07:25:21;;;;;;;1.33;0.30;;;;;;;;;;4977956;28;20949;-89
2022/12/29 07:27:48;;;;;;;1.87;0.70;;;;;;;;;;5000771;28;20413;-90
2022/12/29 07:30:14;;;;;;;2.30;0.27;;;;;;;;;;5005981;28;20422;-91
2022/12/29 07:32:40;;;;;;;0.90;0.30;;;;;;;;;;4988841;28;20413;-91
2022/12/29 07:35:06;;;;;;;1.77;0.87;;;;;;;;;;5008726;28;20483;-91
2022/12/29 07:37:32;;;;;;;0.90;0.30;;;;;;;;;;4990335;28;20440;-91
2022/12/29 07:39:58;;;;;;;0.60;0.20;;;;;;;;;;4990607;28;20423;-91
2022/12/29 07:42:24;;;;;;;2.27;0.30;;;;;;;;;;4990693;28;20465;-90
2022/12/29 07:44:50;;;;;;;4.03;0.67;;;;;;;;;;5005068;28;20447;-92
2022/12/29 07:47:16;;;;;;;0.70;0.30;;;;;;;;;;4983775;28;20422;-92
2022/12/29 07:49:45;;;;;;;1.40;0.40;;;;;;;;;;4977968;28;20518;-93
2022/12/29 07:52:13;;;;;;;1.07;0.40;;;;;;;;;;4995034;28;20399;-93
2022/12/29 07:54:39;;;;;;;0.70;0.20;;;;;;;;;;4994451;28;20781;-93
2022/12/29 07:57:08;;;;;;;2.50;0.70;;;;;;;;;;4994027;28;20421;-91
2022/12/29 07:59:34;;;;;;;1.40;0.20;;;;;;;;;;4976467;28;20513;-92
2022/12/29 08:02:00;;;;;;;1.60;0.20;;;;;;;;;;4981421;28;20444;-92
2022/12/29 08:04:29;;;;;;;0.60;0.20;;;;;;;;;;4967498;28;20496;-89
2022/12/29 08:06:58;;;;;;;0.77;0.50;;;;;;;;;;4966011;28;20512;-89
2022/12/29 08:09:24;;;;;;;0.80;0.20;;;;;;;;;;4974596;28;20777;-93
2022/12/29 08:11:50;;;;;;;0.80;0.20;;;;;;;;;;4967213;28;20425;-93
2022/12/29 08:14:16;;;;;;;0.30;0.20;;;;;;;;;;4962503;28;20419;-92
2022/12/29 08:16:42;;;;;;;0.40;0.20;;;;;;;;;;4962307;28;20417;-92
2022/12/29 08:19:10;;;;;;;0.50;0.20;;;;;;;;;;4961366;28;20472;-93
2022/12/29 08:21:36;;;;;;;1.37;0.20;;;;;;;;;;4961326;28;20518;-94
2022/12/29 08:24:02;;;;;;;1.57;0.40;;;;;;;;;;4961056;28;20871;-88
2022/12/29 08:26:28;;;;;;;0.53;0.20;;;;;;;;;;4962588;28;20476;-89
2022/12/29 08:28:55;;;;;;;1.90;0.40;;;;;;;;;;4979851;28;20925;-86
2022/12/29 08:31:21;;;;;;;2.37;0.37;;;;;;;;;;4979357;28;20426;-85
2022/12/29 08:33:47;;;;;;;2.40;0.20;;;;;;;;;;4979032;28;20934;-89
2022/12/29 08:36:13;;;;;;;2.30;0.30;;;;;;;;;;4978911;28;20444;-85
2022/12/29 08:38:39;;;;;;;0.50;0.30;;;;;;;;;;4979134;28;20919;-88
2022/12/29 08:41:06;;;;;;;1.00;0.23;;;;;;;;;;4978930;28;20413;-89
2022/12/29 08:43:32;;;;;;;1.07;0.20;;;;;;;;;;4978700;28;20473;-88
2022/12/29 08:46:01;;;;;;;0.60;0.20;;;;;;;;;;4979101;28;20426;-83
2022/12/29 08:48:27;;;;;;;4.10;0.30;;;;;;;;;;4978796;28;20427;-87
2022/12/29 08:50:53;;;;;;;1.30;0.30;;;;;;;;;;4996253;28;20417;-84
2022/12/29 08:53:19;;;;;;;0.57;0.20;;;;;;;;;;4995456;28;20459;-85
2022/12/29 08:55:46;;;;;;;0.60;0.20;;;;;;;;;;4978219;28;20426;-85
2022/12/29 08:58:14;;;;;;;0.80;0.20;;;;;;;;;;4978395;28;20917;-84
2022/12/29 09:00:40;;;;;;;5.20;0.30;;;;;;;;;;4978372;28;20542;-85
2022/12/29 09:03:06;;;;;;;1.30;0.10;;;;;;;;;;4978322;28;20482;-85
2022/12/29 09:05:32;;;;;;;1.83;0.50;;;;;;;;;;4978305;28;20417;-84
2022/12/29 09:07:58;;;;;;;1.23;0.27;;;;;;;;;;4995766;28;20481;-85
2022/12/29 09:10:24;;;;;;;2.10;0.20;;;;;;;;;;4978216;28;20781;-85
2022/12/29 09:12:50;;;;;;;1.00;0.30;;;;;;;;;;4977847;28;20418;-84
2022/12/29 09:15:16;;;;;;;1.07;0.20;;;;;;;;;;4978229;28;20452;-85
2022/12/29 09:17:45;;;;;;;1.10;0.23;;;;;;;;;;4978215;28;20471;-84
2022/12/29 09:20:12;;;;;;;0.40;0.20;;;;;;;;;;4978111;28;20540;-85
2022/12/29 09:22:38;;;;;;;0.40;0.20;;;;;;;;;;4977841;28;20486;-86
2022/12/29 09:25:04;;;;;;;1.27;0.20;;;;;;;;;;4977836;28;20479;-86
2022/12/29 09:27:30;;;;;;;1.13;0.20;;;;;;;;;;4977766;28;20466;-85
2022/12/29 09:29:56;;;;;;;0.90;0.20;;;;;;;;;;4994932;28;20819;-84
2022/12/29 09:32:22;;;;;;;0.83;0.20;;;;;;;;;;4977693;28;20428;-85
2022/12/29 09:34:48;;;;;;;2.40;0.30;;;;;;;;;;4995287;28;20510;-83
2022/12/29 09:37:14;;;;;;;2.10;0.20;;;;;;;;;;4977784;28;20428;-82
2022/12/29 09:39:40;;;;;;;0.50;0.10;;;;;;;;;;4977638;28;20431;-84
2022/12/29 09:42:18;;;;;;;1.27;0.10;;;;;;;;;;4977644;28;20815;-82
2022/12/29 09:45:04;;;;;;;3.20;0.20;;;;;;;;;;4977227;28;20486;-85
2022/12/29 09:47:34;;;;;;;1.77;0.20;;;;;;;;;;4977549;28;20754;-85
2022/12/29 09:50:02;;;;;;;1.10;0.20;;;;;;;;;;4977510;28;20461;-84
2022/12/29 09:52:31;;;;;;;3.23;0.20;;;;;;;;;;4994846;28;20555;-84
2022/12/29 09:55:04;;;;;;;2.20;0.33;;;;;;;;;;4976452;28;20919;-85
2022/12/29 09:57:41;;;;;;;3.70;0.20;;;;;;;;;;4977374;28;20501;-88
2022/12/29 10:00:12;;;;;;;0.97;0.20;;;;;;;;;;4977420;28;20432;-85
2022/12/29 10:02:44;;;;;;;3.30;0.40;;;;;;;;;;4977230;28;20463;-86
2022/12/29 10:05:16;;;;;;;2.67;0.30;;;;;;;;;;4942927;28;21230;-85
2022/12/29 10:08:00;;;;;;;1.63;0.20;;;;;;;;;;4983803;28;20449;-85
2022/12/29 10:10:26;;;;;;;1.03;0.23;;;;;;;;;;4994679;28;20430;-87
2022/12/29 10:13:25;;;;;;;0.37;0.20;;;;;;;;;;4993984;28;20933;-88
2022/12/29 10:15:57;;;;;;;1.83;1.03;;;;;;;;;;4941221;28;20193;-86
2022/12/29 10:18:45;;;;;;;0.77;0.20;;;;;;;;;;4956885;28;20498;-86
2022/12/29 10:21:11;;;;;;;3.10;0.30;;;;;;;;;;4956456;28;20426;-86
2022/12/29 10:23:50;;;;;;;1.07;0.20;;;;;;;;;;4957723;28;20485;-86
2022/12/29 10:26:23;;;;;;;1.10;0.20;;;;;;;;;;4957047;28;20422;-87
2022/12/29 10:28:52;;;;;;;1.67;0.20;;;;;;;;;;4974451;28;20418;-89
2022/12/29 10:31:26;;;;;;;1.63;0.20;;;;;;;;;;4956911;28;20449;-89
2022/12/29 10:33:56;;;;;;;1.33;0.20;;;;;;;;;;4956247;28;20474;-85
2022/12/29 10:36:49;;;;;;;0.73;0.20;;;;;;;;;;4954259;28;20422;-85
2022/12/29 10:39:17;;;;;;;4.33;0.20;;;;;;;;;;4951970;28;20970;-87
2022/12/29 10:41:52;;;;;;;2.87;0.30;;;;;;;;;;4955501;28;20439;-85
2022/12/29 10:44:19;;;;;;;2.20;0.50;;;;;;;;;;4955420;28;20527;-85
2022/12/29 10:46:55;;;;;;;1.60;0.30;;;;;;;;;;4957062;28;20571;-87
2022/12/29 10:49:21;;;;;;;2.63;0.20;;;;;;;;;;4956397;28;20523;-88
2022/12/29 10:51:49;;;;;;;1.33;0.30;;;;;;;;;;4957192;28;20784;-87
2022/12/29 10:54:21;;;;;;;1.43;0.30;;;;;;;;;;4956998;28;20507;-87
2022/12/29 10:56:50;;;;;;;3.43;0.30;;;;;;;;;;4975214;28;20878;-91
2022/12/29 10:59:18;;;;;;;2.17;0.40;;;;;;;;;;4958915;28;20434;-88
2022/12/29 11:01:54;;;;;;;3.83;0.67;;;;;;;;;;4975869;28;20416;-89
2022/12/29 11:04:39;;;;;;;9.00;0.50;;;;;;;;;;4961373;28;20475;-90
2022/12/29 11:07:06;;;;;;;1.33;0.40;;;;;;;;;;4920491;28;20432;-89
2022/12/29 11:09:34;;;;;;;1.17;0.30;;;;;;;;;;4957580;28;20907;-86
2022/12/29 11:12:00;;;;;;;2.47;0.30;;;;;;;;;;4957272;28;20421;-88
2022/12/29 11:14:31;;;;;;;0.57;0.10;;;;;;;;;;4957053;28;20907;-90
2022/12/29 11:16:58;;;;;;;0.80;0.17;;;;;;;;;;4957501;28;20182;-87
2022/12/29 11:19:26;;;;;;;1.80;0.40;;;;;;;;;;4957514;28;20421;-89
2022/12/29 11:21:52;;;;;;;2.70;0.40;;;;;;;;;;4957253;28;20429;-88
2022/12/29 11:24:20;;;;;;;1.70;0.40;;;;;;;;;;4974177;28;20524;-85
2022/12/29 11:26:46;;;;;;;2.10;0.20;;;;;;;;;;4974221;28;20409;-85
2022/12/29 11:29:23;;;;;;;3.03;0.40;;;;;;;;;;4956457;28;20433;-86
2022/12/29 11:31:54;;;;;;;1.40;0.20;;;;;;;;;;4974098;28;20424;-84
2022/12/29 11:34:25;;;;;;;2.03;0.30;;;;;;;;;;4974037;28;20569;-84
2022/12/29 11:36:52;;;;;;;5.13;0.40;;;;;;;;;;4975198;28;20403;-82
2022/12/29 11:39:24;;;;;;;1.40;0.20;;;;;;;;;;4977850;28;20884;-83
2022/12/29 11:41:53;;;;;;;1.53;0.20;;;;;;;;;;4977940;28;20416;-83
2022/12/29 11:44:20;;;;;;;2.47;0.33;;;;;;;;;;4977378;28;20492;-83
2022/12/29 11:46:48;;;;;;;2.37;0.30;;;;;;;;;;4977763;28;20445;-82
2022/12/29 11:49:19;;;;;;;6.30;0.50;;;;;;;;;;4977717;28;20764;-82
2022/12/29 11:51:46;;;;;;;1.80;0.20;;;;;;;;;;4977569;28;20976;-83
2022/12/29 11:54:17;;;;;;;1.87;0.30;;;;;;;;;;4976612;28;20449;-82
2022/12/29 11:56:44;;;;;;;3.10;0.40;;;;;;;;;;4977564;28;20988;-82
2022/12/29 11:59:29;;;;;;;3.33;0.20;;;;;;;;;;4977224;28;20912;-82
2022/12/29 12:01:56;;;;;;;3.13;0.30;;;;;;;;;;4977487;28;20419;-82
2022/12/29 12:04:24;;;;;;;0.80;0.20;;;;;;;;;;4977247;28;20959;-82
2022/12/29 12:07:02;;;;;;;0.77;0.20;;;;;;;;;;4977464;28;20450;-82
2022/12/29 12:09:34;;;;;;;1.37;0.80;;;;;;;;;;4977390;28;20769;-81
2022/12/29 12:12:00;;;;;;;2.17;0.20;;;;;;;;;;4977312;28;20458;-82
2022/12/29 12:14:31;;;;;;;1.90;0.40;;;;;;;;;;4959455;28;20787;-81
2022/12/29 12:17:00;;;;;;;1.90;0.30;;;;;;;;;;4977216;28;20421;-82
2022/12/29 12:19:39;;;;;;;0.87;0.20;;;;;;;;;;4977190;28;20422;-82
2022/12/29 12:22:19;;;;;;;1.67;0.20;;;;;;;;;;4977228;28;20398;-82
2022/12/29 12:24:57;;;;;;;0.70;0.20;;;;;;;;;;4977261;28;20432;-82
2022/12/29 12:27:26;;;;;;;1.97;0.30;;;;;;;;;;4976630;28;20957;-83
2022/12/29 12:30:04;;;;;;;3.00;0.23;;;;;;;;;;4959668;28;20458;-82
2022/12/29 12:32:30;;;;;;;2.63;0.30;;;;;;;;;;4977012;28;20409;-81
2022/12/29 12:34:56;;;;;;;1.50;0.20;;;;;;;;;;4977031;28;20927;-84
2022/12/29 12:37:45;;;;;;;1.87;0.20;;;;;;;;;;4977032;28;20412;-81
2022/12/29 12:40:29;;;;;;;2.43;0.30;;;;;;;;;;4976928;28;20933;-82
2022/12/29 12:43:05;;;;;;;2.77;0.33;;;;;;;;;;4976368;28;20468;-83
2022/12/29 12:45:50;;;;;;;4.73;0.57;;;;;;;;;;4976799;28;20418;-82
2022/12/29 12:48:16;;;;;;;1.73;0.40;;;;;;;;;;4958892;28;20427;-81
2022/12/29 12:50:48;;;;;;;3.83;0.60;;;;;;;;;;4959243;28;20423;-83
2022/12/29 12:53:30;;;;;;;2.63;0.30;;;;;;;;;;4959159;28;20518;-82
2022/12/29 12:56:15;;;;;;;2.30;0.40;;;;;;;;;;4959158;28;20427;-81
2022/12/29 12:58:54;;;;;;;2.63;0.40;;;;;;;;;;4958956;28;20426;-81
2022/12/29 13:01:29;;;;;;;2.37;0.27;;;;;;;;;;4959208;28;20408;-82
2022/12/29 13:04:13;;;;;;;1.30;0.30;;;;;;;;;;4958769;28;20478;-81
2022/12/29 13:07:02;;;;;;;3.33;0.70;;;;;;;;;;4959145;28;20768;-82
2022/12/29 13:09:40;;;;;;;2.00;0.30;;;;;;;;;;4958897;28;20442;-81
2022/12/29 13:12:25;;;;;;;4.57;0.43;;;;;;;;;;4958506;28;20440;-81
2022/12/29 13:14:52;;;;;;;1.27;1.03;;;;;;;;;;4976280;28;20417;-82
2022/12/29 13:17:36;;;;;;;4.27;0.57;;;;;;;;;;4958789;28;20795;-84
2022/12/29 13:20:09;;;;;;;2.00;0.40;;;;;;;;;;4958804;28;20434;-82
2022/12/29 13:22:41;;;;;;;1.60;0.40;;;;;;;;;;4958584;28;20462;-81
2022/12/29 13:25:16;;;;;;;3.00;0.20;;;;;;;;;;4958406;28;20418;-83
2022/12/29 13:27:49;;;;;;;1.40;0.37;;;;;;;;;;4958178;28;20424;-83
2022/12/29 13:30:19;;;;;;;1.53;0.20;;;;;;;;;;4958511;28;20435;-82
2022/12/29 13:32:57;;;;;;;2.43;0.20;;;;;;;;;;4958713;28;20416;-82
2022/12/29 13:35:32;;;;;;;1.27;0.27;;;;;;;;;;4975856;28;20761;-81
2022/12/29 13:38:27;;;;;;;5.30;0.20;;;;;;;;;;4958603;28;20418;-82
2022/12/29 13:40:56;;;;;;;1.83;0.30;;;;;;;;;;4973016;28;20422;-83
2022/12/29 13:43:23;;;;;;;2.50;0.50;;;;;;;;;;4975408;28;20517;-83
2022/12/29 13:45:55;;;;;;;1.27;0.20;;;;;;;;;;4935770;28;20446;-83
2022/12/29 13:48:23;;;;;;;3.03;0.23;;;;;;;;;;4977550;28;20444;-83
2022/12/29 13:50:53;;;;;;;1.83;0.63;;;;;;;;;;4995340;28;21118;-83
2022/12/29 13:53:40;;;;;;;2.47;0.57;;;;;;;;;;4985158;28;20542;-86
2022/12/29 13:56:20;;;;;;;2.83;0.37;;;;;;;;;;4981617;28;20911;-83
2022/12/29 13:59:05;;;;;;;1.27;0.20;;;;;;;;;;4977601;28;20413;-84
2022/12/29 14:01:43;;;;;;;1.47;0.20;;;;;;;;;;4958176;28;20974;-84
2022/12/29 14:04:17;;;;;;;2.33;0.23;;;;;;;;;;4958788;28;20484;-84
2022/12/29 14:06:44;;;;;;;3.47;0.40;;;;;;;;;;4957533;28;20528;-83
2022/12/29 14:09:29;;;;;;;1.33;0.30;;;;;;;;;;4974250;28;20502;-84
2022/12/29 14:11:55;;;;;;;1.17;0.20;;;;;;;;;;4974839;28;20414;-81
2022/12/29 14:14:22;;;;;;;1.87;0.20;;;;;;;;;;4975194;28;20901;-84
2022/12/29 14:16:48;;;;;;;2.50;0.20;;;;;;;;;;4957715;28;20424;-82
2022/12/29 14:19:27;;;;;;;3.33;0.27;;;;;;;;;;4975463;28;20444;-83
2022/12/29 14:21:54;;;;;;;0.80;0.20;;;;;;;;;;4975183;28;20449;-86
2022/12/29 14:24:35;;;;;;;2.53;0.30;;;;;;;;;;4957769;28;20514;-82
2022/12/29 14:27:21;;;;;;;2.20;0.30;;;;;;;;;;4957309;28;20422;-84
2022/12/29 14:29:51;;;;;;;0.93;0.20;;;;;;;;;;4974858;28;20460;-85
2022/12/29 14:32:26;;;;;;;6.77;0.30;;;;;;;;;;4974892;28;20424;-82
2022/12/29 14:34:59;;;;;;;4.77;0.60;;;;;;;;;;4957492;28;20413;-85
2022/12/29 14:37:35;;;;;;;2.13;0.83;;;;;;;;;;4974688;28;20445;-83
2022/12/29 14:40:22;;;;;;;5.13;0.77;;;;;;;;;;4957351;28;20431;-83
2022/12/29 14:42:48;;;;;;;0.80;0.20;;;;;;;;;;4956782;28;20563;-82
2022/12/29 14:45:14;;;;;;;2.00;0.23;;;;;;;;;;4957238;28;20464;-84
2022/12/29 14:47:44;;;;;;;1.87;0.23;;;;;;;;;;4957209;28;20431;-83
2022/12/29 14:50:14;;;;;;;3.10;0.20;;;;;;;;;;4974441;28;20424;-82
2022/12/29 14:53:04;;;;;;;0.70;0.20;;;;;;;;;;4956873;28;20548;-81
2022/12/29 14:55:37;;;;;;;1.20;0.20;;;;;;;;;;4956902;28;20508;-82
2022/12/29 14:58:05;;;;;;;8.03;0.30;;;;;;;;;;4956677;28;20857;-84
2022/12/29 15:00:33;;;;;;;0.80;0.20;;;;;;;;;;4956956;28;20781;-82
2022/12/29 15:03:18;;;;;;;1.60;0.30;;;;;;;;;;4956881;28;20970;-83
2022/12/29 15:05:51;;;;;;;2.40;0.30;;;;;;;;;;4957012;28;20999;-81
2022/12/29 15:08:19;;;;;;;2.50;0.37;;;;;;;;;;4956931;28;20936;-81
2022/12/29 15:11:01;;;;;;;1.20;0.20;;;;;;;;;;4956825;28;20472;-81
2022/12/29 15:13:37;;;;;;;1.17;0.30;;;;;;;;;;4956521;28;20405;-82
2022/12/29 15:16:04;;;;;;;1.13;0.30;;;;;;;;;;4956763;28;20533;-82
2022/12/29 15:18:31;;;;;;;4.47;0.77;;;;;;;;;;4956711;28;20415;-81
2022/12/29 15:21:05;;;;;;;0.67;0.30;;;;;;;;;;4956861;28;20419;-81
2022/12/29 15:23:41;;;;;;;3.17;0.30;;;;;;;;;;4973805;28;20827;-82
2022/12/29 15:26:08;;;;;;;3.10;1.30;;;;;;;;;;4956538;28;20782;-81
2022/12/29 15:28:42;;;;;;;2.07;0.60;;;;;;;;;;4956276;28;20414;-81
2022/12/29 15:31:11;;;;;;;3.00;0.80;;;;;;;;;;4956780;28;20439;-81
2022/12/29 15:33:39;;;;;;;2.30;0.33;;;;;;;;;;4957348;28;20420;-81
2022/12/29 15:36:10;;;;;;;1.60;0.60;;;;;;;;;;4956650;28;20416;-82
2022/12/29 15:38:36;;;;;;;1.27;0.40;;;;;;;;;;4974196;28;20403;-82
2022/12/29 15:41:07;;;;;;;2.03;0.20;;;;;;;;;;4950807;28;20441;-81
2022/12/29 15:43:39;;;;;;;2.30;0.20;;;;;;;;;;4993067;28;20564;-81
2022/12/29 15:46:05;;;;;;;2.00;0.30;;;;;;;;;;4993495;28;20476;-81